createdAt,value
2022-10-26T00:01:15.894Z,7.76
2022-10-26T00:03:57.123Z,7.73
2022-10-26T00:06:38.152Z,7.73
2022-10-26T00:09:18.046Z,7.69
2022-10-26T00:11:57.793Z,7.68
2022-10-26T00:14:37.612Z,7.68
2022-10-26T00:17:17.454Z,7.67
2022-10-26T00:19:55.289Z,7.62
2022-10-26T00:22:35.428Z,7.63
2022-10-26T00:25:17.413Z,7.58
2022-10-26T00:28:00.260Z,7.54
2022-10-26T00:30:43.237Z,7.54
2022-10-26T00:33:27.639Z,7.53
2022-10-26T00:36:10.340Z,7.56
2022-10-26T00:38:50.783Z,7.51
2022-10-26T00:41:32.653Z,7.53
2022-10-26T00:44:34.632Z,7.52
2022-10-26T00:47:17.600Z,7.51
2022-10-26T00:49:59.041Z,7.49
2022-10-26T00:52:37.985Z,7.49
2022-10-26T00:55:16.093Z,7.50
2022-10-26T00:57:56.147Z,7.51
2022-10-26T01:00:37.961Z,7.49
2022-10-26T01:03:19.094Z,7.50
2022-10-26T01:06:00.368Z,7.48
2022-10-26T01:08:42.545Z,7.47
2022-10-26T01:11:23.148Z,7.44
2022-10-26T01:14:05.604Z,7.41
2022-10-26T01:16:49.825Z,7.39
2022-10-26T01:19:58.226Z,7.39
2022-10-26T01:22:39.720Z,7.39
2022-10-26T01:25:25.037Z,7.37
2022-10-26T01:28:05.292Z,7.37
2022-10-26T01:30:48.121Z,7.36
2022-10-26T01:33:33.683Z,7.33
2022-10-26T01:36:29.037Z,7.31
2022-10-26T01:39:12.157Z,7.30
2022-10-26T01:41:59.356Z,7.27
2022-10-26T01:44:42.354Z,7.24
2022-10-26T01:47:22.788Z,7.22
2022-10-26T01:50:02.584Z,7.17
2022-10-26T01:52:42.382Z,7.12
2022-10-26T01:55:44.589Z,7.13
2022-10-26T01:58:46.124Z,7.15
2022-10-26T02:01:47.942Z,7.13
2022-10-26T02:04:33.471Z,7.13
2022-10-26T02:07:16.243Z,7.13
2022-10-26T02:10:00.621Z,7.13
2022-10-26T02:12:42.850Z,7.13
2022-10-26T02:15:23.545Z,7.10
2022-10-26T02:18:18.234Z,7.10
2022-10-26T02:21:02.163Z,7.07
2022-10-26T02:23:42.400Z,7.08
2022-10-26T02:26:24.484Z,7.08
2022-10-26T02:29:06.039Z,7.10
2022-10-26T02:31:46.485Z,7.08
2022-10-26T02:34:27.047Z,7.07
2022-10-26T02:37:10.013Z,7.06
2022-10-26T02:39:50.888Z,7.07
2022-10-26T02:42:34.230Z,7.07
2022-10-26T02:45:15.960Z,7.07
2022-10-26T02:47:58.540Z,7.09
2022-10-26T02:50:42.401Z,7.09
2022-10-26T02:53:24.456Z,7.13
2022-10-26T02:56:08.096Z,7.12
2022-10-26T02:59:03.673Z,7.12
2022-10-26T03:01:45.000Z,7.13
2022-10-26T03:04:30.423Z,7.14
2022-10-26T03:07:10.927Z,7.16
2022-10-26T03:09:50.928Z,7.20
2022-10-26T03:12:30.237Z,7.18
2022-10-26T03:15:12.666Z,7.21
2022-10-26T03:17:51.936Z,7.23
2022-10-26T03:20:33.322Z,7.25
2022-10-26T03:23:14.584Z,7.26
2022-10-26T03:25:58.692Z,7.25
2022-10-26T03:28:37.689Z,7.26
2022-10-26T03:31:18.908Z,7.32
2022-10-26T03:34:00.258Z,7.32
2022-10-26T03:36:40.184Z,7.32
2022-10-26T03:39:23.481Z,7.32
2022-10-26T03:42:04.635Z,7.32
2022-10-26T03:44:47.136Z,7.39
2022-10-26T03:47:27.236Z,7.35
2022-10-26T03:50:07.520Z,7.38
2022-10-26T03:52:49.119Z,7.34
2022-10-26T03:55:29.892Z,7.38
2022-10-26T03:58:10.016Z,7.40
2022-10-26T04:00:51.385Z,7.39
2022-10-26T04:03:32.545Z,7.40
2022-10-26T04:06:12.320Z,7.42
2022-10-26T04:08:58.161Z,7.39
2022-10-26T04:11:38.352Z,7.41
2022-10-26T04:14:16.245Z,7.39
2022-10-26T04:16:56.352Z,7.41
2022-10-26T04:19:36.159Z,7.41
2022-10-26T04:22:15.953Z,7.39
2022-10-26T04:24:55.758Z,7.39
2022-10-26T04:27:36.289Z,7.38
2022-10-26T04:30:17.133Z,7.37
2022-10-26T04:33:00.420Z,7.35
2022-10-26T04:35:43.764Z,7.34
2022-10-26T04:38:24.400Z,7.34
2022-10-26T04:41:04.424Z,7.33
2022-10-26T04:43:47.624Z,7.31
2022-10-26T04:46:28.593Z,7.28
2022-10-26T04:49:08.411Z,7.28
2022-10-26T04:51:48.325Z,7.26
2022-10-26T04:54:31.669Z,7.41
2022-10-26T04:57:14.659Z,7.41
2022-10-26T05:00:08.072Z,7.68
2022-10-26T05:02:50.865Z,7.72
2022-10-26T05:05:32.496Z,7.89
2022-10-26T05:08:13.295Z,8.09
2022-10-26T05:10:54.699Z,8.27
2022-10-26T05:13:36.481Z,8.28
2022-10-26T05:16:19.495Z,8.47
2022-10-26T05:19:02.533Z,8.63
2022-10-26T05:24:31.760Z,8.73
2022-10-26T05:27:12.708Z,8.78
2022-10-26T05:29:52.660Z,8.78
2022-10-26T05:32:33.999Z,8.84
2022-10-26T05:35:15.550Z,8.73
2022-10-26T05:37:58.793Z,8.75
2022-10-26T05:40:38.334Z,8.80
2022-10-26T05:43:19.721Z,8.81
2022-10-26T05:46:01.128Z,8.75
2022-10-26T05:48:42.413Z,8.74
2022-10-26T05:51:23.769Z,8.84
2022-10-26T05:54:03.601Z,8.84
2022-10-26T05:56:43.948Z,8.84
2022-10-26T05:59:25.282Z,8.91
2022-10-26T06:02:07.927Z,8.91
2022-10-26T06:05:32.536Z,8.91
2022-10-26T06:08:13.196Z,8.92
2022-10-26T06:10:57.011Z,8.95
2022-10-26T06:13:35.798Z,9.00
2022-10-26T06:16:22.992Z,9.03
2022-10-26T06:19:06.993Z,9.06
2022-10-26T06:21:49.144Z,9.03
2022-10-26T06:24:31.450Z,9.01
2022-10-26T06:27:19.476Z,8.99
2022-10-26T06:30:00.689Z,8.98
2022-10-26T06:32:41.587Z,8.94
2022-10-26T06:35:25.126Z,8.96
2022-10-26T06:38:08.390Z,8.93
2022-10-26T06:40:52.046Z,8.88
2022-10-26T06:43:32.200Z,8.89
2022-10-26T06:46:14.605Z,8.84
2022-10-26T06:48:57.700Z,8.85
2022-10-26T06:51:39.757Z,8.83
2022-10-26T06:54:22.425Z,8.84
2022-10-26T06:57:04.140Z,8.81
2022-10-26T06:59:45.661Z,8.83
2022-10-26T07:02:26.786Z,8.88
2022-10-26T07:05:12.800Z,8.97
2022-10-26T07:07:52.790Z,9.01
2022-10-26T07:10:35.055Z,9.09
2022-10-26T07:13:15.453Z,9.14
2022-10-26T07:15:57.102Z,9.23
2022-10-26T07:18:40.205Z,9.29
2022-10-26T07:21:21.240Z,9.34
2022-10-26T07:24:01.111Z,9.41
2022-10-26T07:26:42.432Z,9.47
2022-10-26T07:29:22.284Z,9.57
2022-10-26T07:32:02.062Z,9.57
2022-10-26T07:34:41.846Z,9.71
2022-10-26T07:37:21.656Z,9.78
2022-10-26T07:40:06.518Z,9.87
2022-10-26T07:42:47.923Z,9.90
2022-10-26T07:45:29.353Z,9.98
2022-10-26T07:48:08.681Z,10.07
2022-10-26T07:50:49.035Z,10.13
2022-10-26T07:53:32.162Z,10.22
2022-10-26T07:56:13.187Z,10.28
2022-10-26T07:58:54.356Z,10.37
2022-10-26T08:01:32.602Z,10.43
2022-10-26T08:04:33.349Z,10.50
2022-10-26T08:07:15.122Z,10.58
2022-10-26T08:09:56.213Z,10.63
2022-10-26T08:12:39.591Z,10.69
2022-10-26T08:15:20.728Z,10.77
2022-10-26T08:18:01.969Z,10.85
2022-10-26T08:20:41.759Z,10.90
2022-10-26T08:23:23.620Z,11.00
2022-10-26T08:26:05.005Z,11.07
2022-10-26T08:28:49.163Z,11.14
2022-10-26T08:31:31.019Z,11.20
2022-10-26T08:34:14.023Z,11.29
2022-10-26T08:36:54.999Z,11.30
2022-10-26T08:39:34.851Z,11.47
2022-10-26T08:42:14.487Z,11.52
2022-10-26T08:44:58.201Z,11.61
2022-10-26T08:47:44.002Z,11.70
2022-10-26T08:50:28.045Z,11.74
2022-10-26T08:53:09.045Z,11.88
2022-10-26T08:56:02.209Z,11.99
2022-10-26T08:58:46.265Z,12.15
2022-10-26T09:01:25.893Z,12.22
2022-10-26T09:04:10.298Z,12.26
2022-10-26T09:06:51.715Z,12.44
2022-10-26T09:09:32.843Z,12.57
2022-10-26T09:12:14.539Z,12.63
2022-10-26T09:14:57.810Z,12.70
2022-10-26T09:17:41.804Z,12.94
2022-10-26T09:20:36.857Z,13.09
2022-10-26T09:23:22.089Z,13.23
2022-10-26T09:26:05.756Z,13.41
2022-10-26T09:28:49.192Z,13.57
2022-10-26T09:31:30.189Z,13.69
2022-10-26T09:34:08.086Z,13.76
2022-10-26T09:36:50.177Z,13.80
2022-10-26T09:39:36.699Z,13.82
2022-10-26T09:42:18.847Z,13.88
2022-10-26T09:44:59.948Z,13.99
2022-10-26T09:47:40.748Z,14.12
2022-10-26T09:50:21.503Z,14.10
2022-10-26T09:53:01.448Z,14.17
2022-10-26T09:55:55.714Z,14.17
2022-10-26T09:58:38.059Z,14.26
2022-10-26T10:01:35.353Z,14.28
2022-10-26T10:04:21.108Z,14.42
2022-10-26T10:07:14.008Z,14.47
2022-10-26T10:10:08.298Z,14.56
2022-10-26T10:12:51.030Z,14.63
2022-10-26T10:15:32.519Z,14.67
2022-10-26T10:18:17.900Z,14.62
2022-10-26T10:20:58.940Z,14.68
2022-10-26T10:23:38.471Z,14.81
2022-10-26T10:26:17.793Z,14.93
2022-10-26T10:29:18.661Z,15.02
2022-10-26T10:32:01.640Z,14.98
2022-10-26T10:34:41.518Z,15.15
2022-10-26T10:37:25.224Z,15.15
2022-10-26T10:40:07.080Z,15.22
2022-10-26T10:42:47.707Z,15.36
2022-10-26T10:45:30.921Z,15.48
2022-10-26T10:48:16.241Z,15.40
2022-10-26T10:50:57.210Z,15.54
2022-10-26T10:53:38.054Z,15.57
2022-10-26T10:56:24.725Z,15.74
2022-10-26T10:59:12.046Z,15.69
2022-10-26T11:02:00.880Z,15.89
2022-10-26T11:04:44.501Z,16.01
2022-10-26T11:07:25.634Z,16.20
2022-10-26T11:10:08.185Z,16.35
2022-10-26T11:12:51.175Z,16.46
2022-10-26T11:15:32.868Z,16.73
2022-10-26T11:18:14.165Z,16.96
2022-10-26T11:23:41.870Z,17.47
2022-10-26T11:26:21.557Z,17.84
2022-10-26T11:29:02.497Z,18.06
2022-10-26T11:31:43.461Z,18.26
2022-10-26T11:34:27.122Z,18.67
2022-10-26T11:37:11.219Z,18.88
2022-10-26T11:40:01.697Z,18.98
2022-10-26T11:42:42.346Z,19.18
2022-10-26T11:45:24.554Z,19.56
2022-10-26T11:48:05.523Z,19.74
2022-10-26T11:50:46.527Z,20.18
2022-10-26T11:53:29.315Z,20.59
2022-10-26T11:56:12.749Z,20.73
2022-10-26T11:58:51.258Z,20.66
2022-10-26T12:01:34.420Z,20.56
2022-10-26T12:04:16.491Z,20.83
2022-10-26T12:06:57.602Z,20.97
2022-10-26T12:09:39.946Z,20.98
2022-10-26T12:12:22.732Z,21.25
2022-10-26T12:15:05.669Z,21.33
2022-10-26T12:17:47.715Z,21.45
2022-10-26T12:20:40.645Z,21.25
2022-10-26T12:23:33.907Z,21.34
2022-10-26T12:26:48.036Z,21.51
2022-10-26T12:29:31.381Z,21.65
2022-10-26T12:32:29.866Z,21.41
2022-10-26T12:35:23.432Z,21.58
2022-10-26T12:38:02.454Z,21.50
2022-10-26T12:40:44.628Z,21.29
2022-10-26T12:43:36.102Z,21.35
2022-10-26T12:46:43.409Z,21.49
2022-10-26T12:49:41.089Z,21.39
2022-10-26T12:52:21.664Z,21.49
2022-10-26T12:55:21.612Z,21.96
2022-10-26T12:58:07.509Z,22.21
2022-10-26T13:00:48.172Z,22.54
2022-10-26T13:03:31.172Z,22.37
2022-10-26T13:06:17.169Z,22.60
2022-10-26T13:09:02.939Z,22.83
2022-10-26T13:11:46.503Z,23.10
2022-10-26T13:14:27.932Z,22.95
2022-10-26T13:17:08.659Z,22.76
2022-10-26T13:19:55.803Z,22.63
2022-10-26T13:22:36.229Z,22.51
2022-10-26T13:25:22.196Z,21.97
2022-10-26T13:28:01.510Z,21.59
2022-10-26T13:30:53.893Z,21.59
2022-10-26T13:33:38.554Z,21.30
2022-10-26T13:36:28.500Z,21.11
2022-10-26T13:39:14.031Z,20.79
2022-10-26T13:41:56.130Z,20.59
2022-10-26T13:44:39.987Z,20.58
2022-10-26T13:47:25.306Z,20.39
2022-10-26T13:50:07.179Z,20.37
2022-10-26T13:52:48.538Z,20.30
2022-10-26T13:55:32.304Z,20.12
2022-10-26T13:58:16.357Z,20.00
2022-10-26T14:01:05.885Z,19.83
2022-10-26T14:03:45.916Z,19.75
2022-10-26T14:06:28.965Z,19.65
2022-10-26T14:09:14.021Z,19.67
2022-10-26T14:11:58.154Z,19.57
2022-10-26T14:14:40.849Z,19.52
2022-10-26T14:17:21.744Z,19.42
2022-10-26T14:20:02.411Z,19.42
2022-10-26T14:22:43.814Z,19.29
2022-10-26T14:25:36.166Z,19.13
2022-10-26T14:28:26.576Z,18.96
2022-10-26T14:31:16.718Z,18.83
2022-10-26T14:34:00.194Z,18.73
2022-10-26T14:36:41.547Z,18.73
2022-10-26T14:40:19.345Z,18.57
2022-10-26T14:43:00.149Z,18.41
2022-10-26T14:45:48.500Z,18.33
2022-10-26T14:48:32.708Z,18.39
2022-10-26T14:51:18.057Z,18.29
2022-10-26T14:53:59.018Z,18.22
2022-10-26T14:56:41.541Z,18.17
2022-10-26T14:59:25.622Z,18.05
2022-10-26T15:02:06.733Z,17.98
2022-10-26T15:04:59.805Z,17.94
2022-10-26T15:07:43.440Z,17.86
2022-10-26T15:10:44.083Z,17.82
2022-10-26T15:13:27.939Z,17.76
2022-10-26T15:16:11.012Z,17.64
2022-10-26T15:18:53.581Z,17.58
2022-10-26T15:21:35.033Z,17.49
2022-10-26T15:24:19.728Z,17.39
2022-10-26T15:27:00.422Z,17.36
2022-10-26T15:29:53.691Z,17.34
2022-10-26T15:32:35.016Z,17.19
2022-10-26T15:35:31.276Z,17.04
2022-10-26T15:38:12.384Z,16.94
2022-10-26T15:40:55.514Z,16.90
2022-10-26T15:43:38.548Z,16.80
2022-10-26T15:46:19.521Z,16.70
2022-10-26T15:49:00.188Z,16.59
2022-10-26T15:51:40.744Z,16.47
2022-10-26T15:54:22.133Z,16.41
2022-10-26T15:57:02.045Z,16.31
2022-10-26T15:59:43.429Z,16.20
2022-10-26T16:02:40.182Z,16.14
2022-10-26T16:05:21.211Z,16.02
2022-10-26T16:08:02.575Z,15.98
2022-10-26T16:10:43.905Z,15.92
2022-10-26T16:13:23.787Z,15.80
2022-10-26T16:16:05.919Z,15.78
2022-10-26T16:18:46.723Z,15.70
2022-10-26T16:21:27.965Z,15.59
2022-10-26T16:24:08.173Z,15.50
2022-10-26T16:26:49.268Z,15.40
2022-10-26T16:29:32.572Z,15.35
2022-10-26T16:32:13.625Z,15.25
2022-10-26T16:34:53.392Z,15.18
2022-10-26T16:37:33.413Z,15.07
2022-10-26T16:40:26.637Z,14.94
2022-10-26T16:43:09.775Z,14.86
2022-10-26T16:45:50.812Z,14.78
2022-10-26T16:48:32.766Z,14.70
2022-10-26T16:51:16.012Z,14.61
2022-10-26T16:53:57.229Z,14.55
2022-10-26T16:56:38.006Z,14.48
2022-10-26T16:59:17.902Z,14.40
2022-10-26T17:01:55.802Z,14.33
2022-10-26T17:04:35.935Z,14.23
2022-10-26T17:07:17.260Z,14.17
2022-10-26T17:09:57.194Z,14.11
2022-10-26T17:12:38.455Z,14.05
2022-10-26T17:15:19.871Z,14.01
2022-10-26T17:18:01.336Z,14.00
2022-10-26T17:20:49.115Z,13.98
2022-10-26T17:23:27.066Z,13.90
2022-10-26T17:26:08.047Z,13.85
2022-10-26T17:28:53.032Z,13.77
2022-10-26T17:31:35.191Z,13.72
2022-10-26T17:34:35.327Z,13.67
2022-10-26T17:37:15.313Z,13.64
2022-10-26T17:39:56.587Z,13.59
2022-10-26T17:42:36.451Z,13.54
2022-10-26T17:45:18.008Z,13.49
2022-10-26T17:47:59.279Z,13.44
2022-10-26T17:50:40.581Z,13.39
2022-10-26T17:53:30.367Z,13.34
2022-10-26T17:56:13.158Z,13.28
2022-10-26T17:58:53.581Z,13.24
2022-10-26T18:01:34.984Z,13.19
2022-10-26T18:04:16.382Z,13.13
2022-10-26T18:06:57.689Z,13.09
2022-10-26T18:09:39.009Z,13.03
2022-10-26T18:12:18.881Z,12.98
2022-10-26T18:15:00.882Z,12.92
2022-10-26T18:17:45.065Z,12.87
2022-10-26T18:20:26.248Z,12.81
2022-10-26T18:23:06.072Z,12.75
2022-10-26T18:25:45.915Z,12.70
2022-10-26T18:28:25.777Z,12.61
2022-10-26T18:31:08.057Z,12.58
2022-10-26T18:33:48.591Z,12.54
2022-10-26T18:36:32.440Z,12.47
2022-10-26T18:39:15.046Z,12.43
2022-10-26T18:41:55.921Z,12.39
2022-10-26T18:44:35.725Z,12.33
2022-10-26T18:47:27.343Z,12.29
2022-10-26T18:50:09.294Z,12.25
2022-10-26T18:52:51.264Z,12.19
2022-10-26T18:55:29.651Z,12.17
2022-10-26T18:58:10.754Z,12.12
2022-10-26T19:00:51.951Z,12.07
2022-10-26T19:03:32.673Z,12.02
2022-10-26T19:06:14.877Z,11.98
2022-10-26T19:08:57.773Z,11.96
2022-10-26T19:11:38.933Z,11.92
2022-10-26T19:14:19.758Z,11.91
2022-10-26T19:16:59.657Z,11.87
2022-10-26T19:19:41.078Z,11.80
2022-10-26T19:22:22.417Z,11.76
2022-10-26T19:25:04.713Z,11.71
2022-10-26T19:27:47.268Z,11.68
2022-10-26T19:30:28.256Z,11.66
2022-10-26T19:33:10.011Z,11.63
2022-10-26T19:35:51.505Z,11.65
2022-10-26T19:38:30.647Z,11.61
2022-10-26T19:41:11.191Z,11.58
2022-10-26T19:43:52.219Z,11.54
2022-10-26T19:46:33.463Z,11.50
2022-10-26T19:49:13.459Z,11.45
2022-10-26T19:51:57.808Z,11.44
2022-10-26T19:54:37.800Z,11.40
2022-10-26T19:57:21.127Z,11.38
2022-10-26T20:00:02.156Z,11.36
2022-10-26T20:02:53.657Z,11.31
2022-10-26T20:05:34.534Z,11.27
2022-10-26T20:08:27.417Z,11.23
2022-10-26T20:11:10.178Z,11.23
2022-10-26T20:13:56.347Z,11.17
2022-10-26T20:16:36.930Z,11.13
2022-10-26T20:19:16.217Z,11.09
2022-10-26T20:21:56.390Z,11.05
2022-10-26T20:24:37.793Z,11.06
2022-10-26T20:27:21.171Z,10.99
2022-10-26T20:30:04.285Z,10.98
2022-10-26T20:32:58.139Z,10.97
2022-10-26T20:35:40.342Z,10.97
2022-10-26T20:38:21.760Z,10.97
2022-10-26T20:41:03.715Z,10.97
2022-10-26T20:43:48.070Z,11.02
2022-10-26T20:46:29.284Z,11.02
2022-10-26T20:49:22.579Z,11.07
2022-10-26T20:52:19.917Z,11.07
2022-10-26T20:55:04.869Z,11.14
2022-10-26T20:57:53.881Z,11.14
2022-10-26T21:00:33.385Z,11.14
2022-10-26T21:03:14.596Z,11.13
2022-10-26T21:05:54.407Z,11.14
2022-10-26T21:08:34.245Z,11.11
2022-10-26T21:11:15.687Z,11.13
2022-10-26T21:14:00.633Z,11.09
2022-10-26T21:16:41.595Z,11.08
2022-10-26T21:19:21.427Z,11.08
2022-10-26T21:22:01.243Z,11.03
2022-10-26T21:24:41.185Z,11.01
2022-10-26T21:27:20.502Z,11.01
2022-10-26T21:30:02.645Z,10.99
2022-10-26T21:32:41.765Z,10.97
2022-10-26T21:35:21.942Z,10.96
2022-10-26T21:38:03.252Z,10.95
2022-10-26T21:40:43.173Z,10.92
2022-10-26T21:43:22.584Z,10.89
2022-10-26T21:46:04.701Z,10.87
2022-10-26T21:48:47.818Z,10.84
2022-10-26T21:51:30.667Z,10.81
2022-10-26T21:54:12.020Z,10.79
2022-10-26T21:56:55.158Z,10.76
2022-10-26T21:59:36.122Z,10.73
2022-10-26T22:02:16.005Z,10.71
2022-10-26T22:04:59.355Z,10.70
2022-10-26T22:07:40.328Z,10.67
2022-10-26T22:10:22.772Z,10.65
2022-10-26T22:13:05.181Z,10.63
2022-10-26T22:15:46.177Z,10.60
2022-10-26T22:18:26.041Z,10.59
2022-10-26T22:21:09.380Z,10.56
2022-10-26T22:23:50.408Z,10.55
2022-10-26T22:26:30.275Z,10.52
2022-10-26T22:29:11.697Z,10.52
2022-10-26T22:31:51.518Z,10.49
2022-10-26T22:34:32.903Z,10.45
2022-10-26T22:37:14.318Z,10.42
2022-10-26T22:39:55.668Z,10.40
2022-10-26T22:42:35.533Z,10.39
2022-10-26T22:45:16.953Z,10.36
2022-10-26T22:47:58.377Z,10.33
2022-10-26T22:50:40.326Z,10.32
2022-10-26T22:53:19.121Z,10.29
2022-10-26T22:56:01.324Z,10.27
2022-10-26T22:58:43.304Z,10.24
2022-10-26T23:01:24.789Z,10.24
2022-10-26T23:04:05.368Z,10.24
2022-10-26T23:06:46.520Z,10.19
2022-10-26T23:09:28.328Z,10.18
2022-10-26T23:12:11.288Z,10.14
2022-10-26T23:14:54.319Z,10.11
2022-10-26T23:17:35.348Z,10.10
2022-10-26T23:20:15.208Z,10.07
2022-10-26T23:22:56.540Z,10.05
2022-10-26T23:25:38.375Z,10.05
2022-10-26T23:28:21.376Z,10.00
2022-10-26T23:31:04.432Z,9.99
2022-10-26T23:33:45.593Z,9.97
2022-10-26T23:36:24.915Z,9.96
2022-10-26T23:39:05.100Z,9.94
2022-10-26T23:41:44.490Z,9.92
2022-10-26T23:44:24.667Z,9.91
2022-10-26T23:47:06.470Z,9.89
2022-10-26T23:49:49.007Z,9.88
2022-10-26T23:52:28.808Z,9.88
2022-10-26T23:55:22.402Z,9.89
2022-10-26T23:58:03.488Z,9.86
